CheckWX is a tool to help pilots better visualize weather data.  It is not intended as a substitute for an official pre-flight weather briefing.

14:02:33 UTC

CYHM METAR
John C. Munro Hamilton International Airport
Hamilton, Canada
Current

1 hour ago

CYHM 251300Z 09003KT 070V140 15SM BKN110 BKN150 BKN250 07/05 A2992 RMK AC6AC1CI1 CI TR SLP137
Observed
Apr-25 @ 13:00 UTC
Wind
  • 090° at 3 KTS
Visibility
15 SM
Flight Rules
VFR
Cloud Levels
  • Broken at 11,000' AGL
  • Broken at 15,000' AGL
  • Broken at 25,000' AGL
Temperature
C / 45°F
Dewpoint
C / 41°F
Humidity
87%
Altimeter
29.92" Hg
Pressure
1013.22 hPa
Previous

2 hours ago

CYHM 251200Z VRB02KT 15SM BKN110 05/04 A2992 RMK AC7 SLP139
Observed
Apr-25 @ 12:00 UTC
Wind
  • Variable at 2 KTS
Visibility
15 SM
Flight Rules
VFR
Cloud Levels
  • Broken at 11,000' AGL
Temperature
C / 41°F
Dewpoint
C / 39°F
Humidity
93%
Altimeter
29.92" Hg
Pressure
1013.22 hPa
Previous

3 hours ago

CYHM 251100Z 05003KT 15SM SCT140 SCT250 02/02 A2990 RMK AC3CI1 CI TR SLP132
Observed
Apr-25 @ 11:00 UTC
Wind
  • 050° at 3 KTS
Visibility
15 SM
Flight Rules
VFR
Cloud Levels
  • Scattered at 14,000' AGL
  • Scattered at 25,000' AGL
Temperature
C / 36°F
Dewpoint
C / 36°F
Humidity
100%
Altimeter
29.9" Hg
Pressure
1012.52 hPa